createdAt,value
2022-10-11T00:02:59.009Z,31.08
2022-10-11T00:06:03.759Z,30.05
2022-10-11T00:09:07.389Z,29.83
2022-10-11T00:12:10.663Z,28.58
2022-10-11T00:15:19.723Z,29.97
2022-10-11T00:18:23.186Z,29.20
2022-10-11T00:21:26.349Z,31.60
2022-10-11T00:24:29.150Z,29.25
2022-10-11T00:27:31.906Z,30.05
2022-10-11T00:30:34.768Z,28.43
2022-10-11T00:33:37.755Z,30.00
2022-10-11T00:36:40.495Z,28.45
2022-10-11T00:39:43.288Z,28.48
2022-10-11T00:42:46.487Z,28.92
2022-10-11T00:45:58.593Z,29.73
2022-10-11T00:49:07.182Z,29.83
2022-10-11T00:52:20.689Z,30.98
2022-10-11T00:55:26.992Z,32.72
2022-10-11T00:58:30.167Z,30.75
2022-10-11T01:01:33.251Z,30.40
2022-10-11T01:04:36.188Z,29.48
2022-10-11T01:07:39.750Z,28.27
2022-10-11T01:10:42.769Z,28.02
2022-10-11T01:13:45.411Z,28.70
2022-10-11T01:17:10.394Z,40.50
2022-10-11T01:20:19.291Z,36.35
2022-10-11T01:23:46.604Z,42.03
2022-10-11T01:27:01.212Z,37.55
2022-10-11T01:30:07.859Z,35.30
2022-10-11T01:33:18.771Z,31.90
2022-10-11T01:36:36.910Z,34.00
2022-10-11T01:39:48.219Z,31.45
2022-10-11T01:42:54.398Z,31.83
2022-10-11T01:45:59.248Z,29.42
2022-10-11T01:49:03.326Z,32.43
2022-10-11T01:52:07.420Z,34.05
2022-10-11T01:55:46.506Z,30.48
2022-10-11T01:59:07.425Z,30.30
2022-10-11T02:02:13.217Z,28.98
2022-10-11T02:05:38.233Z,28.63
2022-10-11T02:08:54.744Z,32.10
2022-10-11T02:12:10.763Z,31.55
2022-10-11T02:15:16.291Z,30.92
2022-10-11T02:18:23.814Z,29.92
2022-10-11T02:21:27.845Z,30.27
2022-10-11T02:24:40.803Z,30.65
2022-10-11T02:27:46.803Z,31.77
2022-10-11T02:30:52.835Z,29.73
2022-10-11T02:34:33.825Z,31.15
2022-10-11T02:37:55.461Z,32.20
2022-10-11T02:41:06.044Z,30.98
2022-10-11T02:44:16.291Z,31.77
2022-10-11T02:47:19.613Z,30.70
2022-10-11T02:50:23.339Z,31.67
2022-10-11T02:53:27.338Z,31.20
2022-10-11T02:56:30.030Z,31.17
2022-10-11T02:59:33.140Z,31.10
2022-10-11T03:02:35.917Z,32.40
2022-10-11T03:05:41.763Z,31.92
2022-10-11T03:08:44.499Z,31.17
2022-10-11T03:11:47.229Z,32.22
2022-10-11T03:14:49.906Z,32.00
2022-10-11T03:17:52.606Z,31.05
2022-10-11T03:20:55.827Z,31.33
2022-10-11T03:23:58.574Z,31.33
2022-10-11T03:27:01.314Z,30.80
2022-10-11T03:30:05.030Z,32.50
2022-10-11T03:33:08.303Z,32.08
2022-10-11T03:36:11.219Z,30.35
2022-10-11T03:39:14.015Z,29.33
2022-10-11T03:42:17.345Z,29.38
2022-10-11T03:45:20.098Z,33.33
2022-10-11T03:48:22.970Z,33.00
2022-10-11T03:51:25.709Z,33.15
2022-10-11T03:54:28.604Z,32.90
2022-10-11T03:57:31.499Z,33.38
2022-10-11T04:00:35.585Z,32.90
2022-10-11T04:03:38.428Z,33.28
2022-10-11T04:06:41.211Z,32.63
2022-10-11T04:09:43.973Z,33.63
2022-10-11T04:12:46.845Z,30.88
2022-10-11T04:15:49.592Z,31.90
2022-10-11T04:18:52.413Z,30.33
2022-10-11T04:21:56.039Z,35.50
2022-10-11T04:24:58.725Z,34.90
2022-10-11T04:28:01.639Z,33.20
2022-10-11T04:31:08.173Z,33.92
2022-10-11T04:34:10.933Z,31.60
2022-10-11T04:37:13.853Z,32.30
2022-10-11T04:40:16.699Z,31.80
2022-10-11T04:43:19.540Z,31.98
2022-10-11T04:46:22.369Z,32.08
2022-10-11T04:49:25.121Z,34.00
2022-10-11T04:52:27.949Z,33.80
2022-10-11T04:55:30.687Z,33.10
2022-10-11T04:58:35.453Z,41.25
2022-10-11T05:01:38.251Z,41.00
2022-10-11T05:04:41.043Z,38.70
2022-10-11T05:07:44.371Z,36.67
2022-10-11T05:11:05.159Z,34.80
2022-10-11T05:14:07.910Z,33.08
2022-10-11T05:17:10.649Z,32.97
2022-10-11T05:20:13.994Z,31.75
2022-10-11T05:23:16.754Z,31.00
2022-10-11T05:26:29.346Z,29.60
2022-10-11T05:29:32.026Z,30.20
2022-10-11T05:36:49.553Z,36.78
2022-10-11T05:39:54.701Z,39.27
2022-10-11T05:43:07.587Z,43.00
2022-10-11T05:46:15.045Z,43.95
2022-10-11T05:49:22.714Z,36.92
2022-10-11T05:52:26.973Z,36.65
2022-10-11T05:55:31.246Z,35.13
2022-10-11T05:58:34.314Z,42.83
2022-10-11T06:01:37.262Z,43.08
2022-10-11T06:04:40.500Z,40.53
2022-10-11T06:07:46.283Z,39.38
2022-10-11T06:10:51.233Z,37.65
2022-10-11T06:13:59.058Z,34.07
2022-10-11T06:17:07.790Z,32.47
2022-10-11T06:20:11.694Z,32.33
2022-10-11T06:23:14.557Z,30.83
2022-10-11T06:26:18.898Z,29.95
2022-10-11T06:29:22.647Z,29.47
2022-10-11T06:32:25.651Z,28.48
2022-10-11T06:35:28.513Z,28.15
2022-10-11T06:38:31.440Z,28.02
2022-10-11T06:41:34.195Z,28.00
2022-10-11T06:44:37.208Z,26.60
2022-10-11T06:47:39.970Z,25.23
2022-10-11T06:50:59.155Z,26.45
2022-10-11T06:54:04.049Z,24.23
2022-10-11T06:57:06.837Z,23.35
2022-10-11T07:00:12.622Z,22.77
2022-10-11T07:03:15.734Z,21.92
2022-10-11T07:06:21.595Z,20.85
2022-10-11T07:09:24.477Z,20.40
2022-10-11T07:12:27.609Z,21.98
2022-10-11T07:15:38.342Z,21.73
2022-10-11T07:18:42.543Z,22.50
2022-10-11T07:21:45.565Z,21.80
2022-10-11T07:24:55.691Z,20.90
2022-10-11T07:28:12.111Z,21.20
2022-10-11T07:31:22.838Z,20.97
2022-10-11T07:34:25.655Z,20.88
2022-10-11T07:37:28.631Z,22.02
2022-10-11T07:40:41.033Z,21.33
2022-10-11T07:43:44.107Z,22.55
2022-10-11T07:46:46.849Z,22.00
2022-10-11T07:49:49.715Z,21.10
2022-10-11T07:52:52.504Z,21.58
2022-10-11T07:55:55.352Z,22.08
2022-10-11T07:59:01.028Z,23.23
2022-10-11T08:02:03.907Z,22.37
2022-10-11T08:05:06.919Z,23.13
2022-10-11T08:08:09.765Z,23.10
2022-10-11T08:11:23.567Z,22.63
2022-10-11T08:14:26.420Z,22.55
2022-10-11T08:17:30.006Z,23.50
2022-10-11T08:20:33.485Z,23.40
2022-10-11T08:23:36.375Z,23.52
2022-10-11T08:26:39.934Z,23.42
2022-10-11T08:29:42.776Z,24.23
2022-10-11T08:32:45.637Z,23.33
2022-10-11T08:35:49.773Z,23.15
2022-10-11T08:38:52.630Z,23.20
2022-10-11T08:42:07.111Z,24.20
2022-10-11T08:45:21.946Z,23.80
2022-10-11T08:48:45.159Z,24.70
2022-10-11T08:51:53.360Z,23.08
2022-10-11T08:55:06.628Z,22.98
2022-10-11T08:58:15.258Z,23.60
2022-10-11T09:01:25.356Z,21.02
2022-10-11T09:04:28.467Z,20.27
2022-10-11T09:07:49.784Z,20.38
2022-10-11T09:11:25.716Z,19.77
2022-10-11T09:14:40.640Z,21.77
2022-10-11T09:17:55.689Z,20.90
2022-10-11T09:21:20.000Z,21.37
2022-10-11T09:24:47.455Z,21.05
2022-10-11T09:28:02.786Z,20.40
2022-10-11T09:31:10.779Z,19.38
2022-10-11T09:34:54.195Z,18.70
2022-10-11T09:38:37.703Z,18.37
2022-10-11T09:41:47.018Z,18.00
2022-10-11T09:44:51.501Z,18.48
2022-10-11T09:47:57.890Z,17.77
2022-10-11T09:51:23.283Z,17.58
2022-10-11T09:54:42.990Z,18.63
2022-10-11T09:57:55.315Z,18.63
2022-10-11T10:01:08.603Z,18.15
2022-10-11T10:04:19.186Z,19.15
2022-10-11T10:07:22.788Z,18.88
2022-10-11T10:10:43.076Z,18.90
2022-10-11T10:13:57.271Z,17.75
2022-10-11T10:17:20.859Z,18.77
2022-10-11T10:20:34.312Z,18.17
2022-10-11T10:23:39.550Z,18.88
2022-10-11T10:26:42.711Z,17.73
2022-10-11T10:30:08.815Z,17.65
2022-10-11T10:33:12.097Z,16.45
2022-10-11T10:36:34.570Z,19.08
2022-10-11T10:39:52.068Z,16.77
2022-10-11T10:42:59.481Z,16.77
2022-10-11T10:46:30.603Z,16.42
2022-10-11T10:49:55.013Z,16.42
2022-10-11T10:53:23.106Z,15.23
2022-10-11T10:56:40.617Z,14.75
2022-10-11T10:59:49.765Z,14.97
2022-10-11T11:03:13.609Z,15.30
2022-10-11T11:06:23.355Z,13.85
2022-10-11T11:09:55.601Z,13.10
2022-10-11T11:13:20.033Z,13.70
2022-10-11T11:16:22.891Z,14.53
2022-10-11T11:19:57.361Z,14.65
2022-10-11T11:23:51.193Z,14.93
2022-10-11T11:27:23.635Z,16.55
2022-10-11T11:30:57.781Z,16.65
2022-10-11T11:34:23.469Z,18.10
2022-10-11T11:37:34.672Z,16.67
2022-10-11T11:40:45.361Z,15.05
2022-10-11T11:44:03.734Z,15.82
2022-10-11T11:47:17.997Z,16.42
2022-10-11T11:50:31.537Z,15.63
2022-10-11T11:53:59.340Z,16.45
2022-10-11T11:57:36.197Z,15.10
2022-10-11T12:00:49.808Z,15.65
2022-10-11T12:03:56.467Z,16.17
2022-10-11T12:07:17.687Z,16.97
2022-10-11T12:10:40.890Z,17.65
2022-10-11T12:13:44.757Z,18.38
2022-10-11T12:17:24.883Z,19.92
2022-10-11T12:20:33.901Z,18.92
2022-10-11T12:23:43.767Z,19.73
2022-10-11T12:26:49.266Z,17.48
2022-10-11T12:29:52.012Z,16.88
2022-10-11T12:33:06.379Z,16.88
2022-10-11T12:36:24.053Z,17.25
2022-10-11T12:39:27.079Z,16.20
2022-10-11T12:42:36.984Z,16.42
2022-10-11T12:45:39.907Z,15.45
2022-10-11T12:48:54.854Z,16.88
2022-10-11T12:52:19.211Z,17.80
2022-10-11T12:55:43.640Z,16.23
2022-10-11T12:58:50.067Z,17.50
2022-10-11T13:01:55.768Z,16.10
2022-10-11T13:05:23.940Z,16.33
2022-10-11T13:08:35.029Z,16.52
2022-10-11T13:11:46.441Z,16.67
2022-10-11T13:15:05.455Z,17.08
2022-10-11T13:18:14.425Z,16.13
2022-10-11T13:21:21.583Z,16.48
2022-10-11T13:24:28.800Z,17.17
2022-10-11T13:27:31.931Z,16.70
2022-10-11T13:30:37.410Z,16.25
2022-10-11T13:33:44.570Z,16.35
2022-10-11T13:36:47.514Z,16.23
2022-10-11T13:39:55.633Z,16.52
2022-10-11T13:42:58.917Z,19.10
2022-10-11T13:46:06.784Z,18.15
2022-10-11T13:49:37.989Z,17.88
2022-10-11T13:52:58.837Z,17.52
2022-10-11T13:56:06.371Z,16.63
2022-10-11T13:59:18.415Z,16.90
2022-10-11T14:02:23.868Z,16.13
2022-10-11T14:05:45.164Z,15.73
2022-10-11T14:08:53.699Z,16.60
2022-10-11T14:12:16.480Z,17.17
2022-10-11T14:15:35.895Z,16.87
2022-10-11T14:18:41.355Z,18.30
2022-10-11T14:21:45.857Z,17.55
2022-10-11T14:24:48.928Z,17.88
2022-10-11T14:27:52.115Z,16.40
2022-10-11T14:30:55.469Z,17.30
2022-10-11T14:33:59.047Z,16.48
2022-10-11T14:37:01.900Z,15.77
2022-10-11T14:40:14.717Z,16.92
2022-10-11T14:43:17.435Z,16.65
2022-10-11T14:46:25.408Z,16.30
2022-10-11T14:49:30.475Z,16.67
2022-10-11T14:52:33.278Z,17.63
2022-10-11T14:55:39.780Z,20.23
2022-10-11T14:58:42.882Z,17.30
2022-10-11T15:01:46.937Z,18.03
2022-10-11T15:04:49.678Z,17.60
2022-10-11T15:07:52.663Z,20.65
2022-10-11T15:10:55.381Z,19.30
2022-10-11T15:13:58.312Z,20.65
2022-10-11T15:17:01.030Z,29.20
2022-10-11T15:20:04.583Z,28.27
2022-10-11T15:23:09.954Z,22.70
2022-10-11T15:26:18.116Z,20.45
2022-10-11T15:29:22.453Z,19.88
2022-10-11T15:32:25.183Z,19.50
2022-10-11T15:35:29.739Z,20.58
2022-10-11T15:38:32.683Z,26.60
2022-10-11T15:41:36.298Z,24.27
2022-10-11T15:44:39.086Z,27.38
2022-10-11T15:47:41.917Z,34.40
2022-10-11T15:50:45.812Z,35.20
2022-10-11T15:53:48.653Z,32.33
2022-10-11T15:56:51.713Z,32.63
2022-10-11T15:59:54.589Z,30.83
2022-10-11T16:02:59.545Z,25.10
2022-10-11T16:06:05.572Z,27.02
2022-10-11T16:09:08.723Z,22.42
2022-10-11T16:12:11.526Z,21.60
2022-10-11T16:15:14.956Z,22.00
2022-10-11T16:18:20.301Z,21.67
2022-10-11T16:21:24.297Z,21.25
2022-10-11T16:24:27.578Z,20.88
2022-10-11T16:27:30.940Z,21.42
2022-10-11T16:30:34.830Z,23.23
2022-10-11T16:33:46.094Z,25.40
2022-10-11T16:36:49.306Z,36.22
2022-10-11T16:39:52.149Z,40.90
2022-10-11T16:42:54.829Z,46.95
2022-10-11T16:45:57.818Z,50.83
2022-10-11T16:49:00.962Z,43.03
2022-10-11T16:52:04.634Z,38.38
2022-10-11T16:55:07.791Z,33.13
2022-10-11T16:58:11.172Z,31.60
2022-10-11T17:01:14.469Z,27.23
2022-10-11T17:04:17.366Z,26.37
2022-10-11T17:07:21.304Z,26.73
2022-10-11T17:10:39.451Z,27.58
2022-10-11T17:13:42.503Z,26.23
2022-10-11T17:16:46.051Z,26.30
2022-10-11T17:19:49.021Z,25.60
2022-10-11T17:22:51.830Z,24.67
2022-10-11T17:25:54.610Z,24.92
2022-10-11T17:28:59.741Z,24.65
2022-10-11T17:32:03.710Z,25.73
2022-10-11T17:35:06.854Z,27.50
2022-10-11T17:38:09.545Z,26.00
2022-10-11T17:41:12.758Z,25.45
2022-10-11T17:44:18.847Z,23.95
2022-10-11T17:47:21.611Z,24.73
2022-10-11T17:50:24.309Z,24.90
2022-10-11T17:53:27.126Z,28.95
2022-10-11T17:56:35.087Z,31.83
2022-10-11T17:59:40.261Z,31.75
2022-10-11T18:02:42.994Z,29.35
2022-10-11T18:05:45.793Z,24.57
2022-10-11T18:08:48.873Z,23.80
2022-10-11T18:11:51.875Z,22.65
2022-10-11T18:14:54.694Z,23.20
2022-10-11T18:17:58.658Z,23.35
2022-10-11T18:21:01.637Z,22.63
2022-10-11T18:24:08.173Z,23.45
2022-10-11T18:27:11.087Z,23.13
2022-10-11T18:30:14.843Z,24.17
2022-10-11T18:33:17.585Z,23.95
2022-10-11T18:36:26.943Z,23.97
2022-10-11T18:39:29.997Z,22.23
2022-10-11T18:42:33.038Z,20.73
2022-10-11T18:45:35.784Z,21.15
2022-10-11T18:48:43.760Z,21.58
2022-10-11T18:51:46.816Z,21.73
2022-10-11T18:54:49.625Z,21.88
2022-10-11T18:57:52.457Z,24.60
2022-10-11T19:00:55.562Z,29.08
2022-10-11T19:04:00.071Z,27.90
2022-10-11T19:07:03.350Z,26.67
2022-10-11T19:10:06.795Z,27.98
2022-10-11T19:13:09.746Z,27.55
2022-10-11T19:16:17.210Z,26.60
2022-10-11T19:19:25.769Z,26.15
2022-10-11T19:22:28.536Z,23.60
2022-10-11T19:25:34.958Z,25.77
2022-10-11T19:28:37.845Z,25.02
2022-10-11T19:31:43.366Z,24.75
2022-10-11T19:34:46.138Z,25.67
2022-10-11T19:37:49.080Z,23.77
2022-10-11T19:40:52.444Z,24.35
2022-10-11T19:43:58.363Z,23.83
2022-10-11T19:47:05.261Z,25.30
2022-10-11T19:50:09.356Z,25.17
2022-10-11T19:53:12.182Z,28.93
2022-10-11T19:56:18.060Z,29.08
2022-10-11T19:59:21.082Z,27.88
2022-10-11T20:02:23.866Z,26.15
2022-10-11T20:05:26.588Z,26.17
2022-10-11T20:08:31.482Z,24.27
2022-10-11T20:11:34.388Z,24.70
2022-10-11T20:14:37.152Z,24.65
2022-10-11T20:17:48.914Z,23.75
2022-10-11T20:20:53.086Z,25.42
2022-10-11T20:24:01.487Z,23.73
2022-10-11T20:27:05.690Z,23.13
2022-10-11T20:30:08.848Z,22.80
2022-10-11T20:33:11.696Z,22.67
2022-10-11T20:36:22.460Z,23.10
2022-10-11T20:39:25.504Z,23.27
2022-10-11T20:42:29.963Z,24.23
2022-10-11T20:45:32.784Z,23.35
2022-10-11T20:48:36.754Z,24.48
2022-10-11T20:51:42.167Z,24.27
2022-10-11T20:54:44.985Z,24.27
2022-10-11T20:57:47.844Z,24.90
2022-10-11T21:00:50.621Z,23.55
2022-10-11T21:03:53.842Z,23.10
2022-10-11T21:06:56.583Z,23.10
2022-10-11T21:09:59.425Z,23.03
2022-10-11T21:13:02.674Z,24.05
2022-10-11T21:16:12.878Z,23.27
2022-10-11T21:19:16.257Z,24.00
2022-10-11T21:22:19.475Z,24.45
2022-10-11T21:25:22.316Z,22.97
2022-10-11T21:28:25.139Z,23.50
2022-10-11T21:31:32.897Z,23.55
2022-10-11T21:34:36.675Z,23.73
2022-10-11T21:37:39.440Z,22.60
2022-10-11T21:40:42.286Z,22.17
2022-10-11T21:43:45.449Z,22.65
2022-10-11T21:47:05.992Z,23.73
2022-10-11T21:50:10.186Z,23.30
2022-10-11T21:53:12.850Z,23.48
2022-10-11T21:56:15.587Z,23.50
2022-10-11T21:59:18.318Z,23.08
2022-10-11T22:02:21.022Z,23.42
2022-10-11T22:05:24.340Z,24.23
2022-10-11T22:08:27.180Z,23.38
2022-10-11T22:11:30.208Z,23.13
2022-10-11T22:14:33.106Z,24.02
2022-10-11T22:17:35.978Z,22.58
2022-10-11T22:20:38.882Z,23.42
2022-10-11T22:23:43.444Z,24.23
2022-10-11T22:26:46.271Z,23.13
2022-10-11T22:29:49.070Z,25.23
2022-10-11T22:32:52.325Z,25.25
2022-10-11T22:35:56.562Z,25.02
2022-10-11T22:39:00.093Z,25.13
2022-10-11T22:42:02.777Z,24.57
2022-10-11T22:45:05.790Z,24.52
2022-10-11T22:48:09.146Z,24.00
2022-10-11T22:51:11.891Z,25.10
2022-10-11T22:54:14.759Z,28.33
2022-10-11T22:57:17.791Z,25.50
2022-10-11T23:00:21.620Z,23.95
2022-10-11T23:03:25.133Z,24.15
2022-10-11T23:06:27.908Z,27.67
2022-10-11T23:09:31.707Z,26.67
2022-10-11T23:12:34.881Z,25.97
2022-10-11T23:15:40.719Z,24.20
2022-10-11T23:18:43.686Z,25.33
2022-10-11T23:21:46.966Z,22.63
2022-10-11T23:24:49.883Z,23.85
2022-10-11T23:27:52.524Z,24.43
2022-10-11T23:30:55.348Z,24.20
2022-10-11T23:33:58.134Z,23.92
2022-10-11T23:37:01.928Z,23.17
2022-10-11T23:40:05.226Z,22.10
2022-10-11T23:43:08.094Z,21.83
2022-10-11T23:46:11.279Z,21.70
2022-10-11T23:49:17.611Z,20.85
2022-10-11T23:52:20.523Z,21.30
2022-10-11T23:55:23.499Z,19.98
2022-10-11T23:58:26.611Z,20.73
